Latest Weather Observations for Adelaide

IDS60901

Issued at 5:51 pm CST Wednesday 2 September 2015 (issued every 10 minutes, with the page automatically refreshed every 10 minutes)

About weather observations | Map of Adelaide area stations | Latest observations for Adelaide area | Other Formats
Station Details ID: 023090 Name: KENT TOWN Lat: -34.92 Lon: 138.62 Height: 48.0 m
Data from the previous 72 hours. | See also: Recent months at Adelaide
Date/Time
CST
Tmp

°C
App
Tmp
°C
Dew
Point
°C
Rel
Hum
%
Delta-T

°C
Wind Press
QNH
hPa
Press
MSL
hPa
Rain
since
9 am
mm
Dir
 
Spd
km/h
Gust
km/h
Spd
kts
Gust
kts
02/05:30pm 11.2 10.1 10.0 92 0.6 SSE 6 9 3 5 1001.0 - 9.8
02/05:00pm 11.2 10.1 10.0 92 0.6 E 6 15 3 8 1000.7 - 9.0
02/04:30pm 11.3 10.2 9.9 91 0.7 E 6 13 3 7 1000.6 - 8.0
02/04:00pm 11.3 9.6 9.9 91 0.7 ENE 9 15 5 8 1000.5 - 7.6
02/03:30pm 11.4 9.4 10.0 91 0.7 NE 11 22 6 12 1000.7 - 7.4
02/03:00pm 11.2 9.2 10.0 92 0.6 NNE 11 19 6 10 1001.0 1001.1 7.0
02/02:30pm 11.1 9.0 9.7 91 0.7 N 11 17 6 9 1001.2 - 5.4
02/02:00pm 11.1 9.3 9.5 90 0.8 N 9 17 5 9 1001.5 - 3.8
02/01:30pm 11.3 7.8 8.9 85 1.2 N 17 28 9 15 1001.9 - 2.4
02/01:00pm 11.8 8.4 9.0 83 1.4 NNW 17 28 9 15 1002.3 - 1.6
02/12:30pm 11.5 8.9 9.5 87 1.0 NNW 13 22 7 12 1002.8 - 1.4
02/12:00pm 13.0 9.3 8.0 71 2.5 N 17 30 9 16 1003.1 1003.2 0.4
02/11:30am 11.8 9.7 9.8 87 1.0 N 11 19 6 10 1003.6 - 0.4
02/11:00am 11.8 7.8 8.4 80 1.7 N 19 35 10 19 1004.3 - 0.0
02/10:30am 13.2 9.7 7.0 66 3.0 N 15 24 8 13 1004.3 - 0.0
02/10:00am 13.2 9.4 7.5 68 2.8 N 17 30 9 16 1004.8 - 0.0
02/09:30am 13.0 8.6 7.3 68 2.8 N 20 39 11 21 1005.3 - 0.0
02/09:00am 12.4 8.2 7.5 72 2.4 N 19 32 10 17 1005.6 1005.7 8.4
02/08:30am 11.7 7.5 7.4 75 2.1 N 19 35 10 19 1005.5 - 8.4
02/08:00am 10.8 7.4 7.5 80 1.6 N 15 24 8 13 1005.5 - 8.4
02/07:30am 10.6 7.2 7.5 81 1.5 N 15 24 8 13 1005.4 - 8.4
02/07:00am 10.7 7.3 7.6 81 1.5 N 15 24 8 13 1005.6 - 8.4
02/06:30am 10.8 8.1 7.5 80 1.6 N 11 17 6 9 1005.0 - 8.4
02/06:00am 10.9 7.5 7.8 81 1.5 N 15 26 8 14 1005.3 1005.4 8.4
02/05:30am 10.9 7.6 8.0 82 1.4 N 15 24 8 13 1005.3 - 8.4
02/05:00am 10.9 8.0 8.3 84 1.3 N 13 22 7 12 1005.4 - 8.4
02/04:30am 11.0 8.3 8.8 86 1.1 NNE 13 22 7 12 1005.6 - 8.2
02/04:00am 10.9 8.6 9.1 89 0.9 NE 11 19 6 10 1005.3 - 8.2
02/03:30am 10.8 8.6 9.2 90 0.8 NNE 11 19 6 10 1006.1 - 7.8
02/03:00am 11.0 9.1 9.0 87 1.0 NNE 9 15 5 8 1006.9 1007.0 7.2
02/02:30am 11.1 9.2 9.1 87 1.0 NE 9 19 5 10 1006.9 - 7.0
02/02:00am 11.1 8.5 9.3 89 0.9 NNE 13 22 7 12 1007.4 - 7.0
02/01:30am 10.9 9.5 9.5 91 0.7 NE 7 13 4 7 1007.8 - 6.6
02/01:00am 10.8 9.0 9.4 91 0.7 ENE 9 15 5 8 1007.8 - 6.2
02/12:30am 10.9 9.1 9.5 91 0.7 NE 9 15 5 8 1008.2 - 6.0
02/12:00am 11.3 8.7 9.3 87 1.0 NNE 13 19 7 10 1008.6 1008.7 4.0
 
Date/Time
CST
Tmp

°C
App
Tmp
°C
Dew
Point
°C
Rel
Hum
%
Delta-T

°C
Wind Press
QNH
hPa
Press
MSL
hPa
Rain
since
9 am
mm
Dir
 
Spd
km/h
Gust
km/h
Spd
kts
Gust
kts
01/11:30pm 12.3 7.8 8.7 79 1.8 N 22 39 12 21 1008.5 - 1.4
01/11:00pm 13.7 11.5 7.9 68 2.9 NNE 9 20 5 11 1008.1 - 0.4
01/10:30pm 15.9 11.4 4.4 46 5.4 N 17 26 9 14 1008.3 - 0.0
01/10:00pm 16.2 11.8 2.8 40 6.1 NNE 15 30 8 16 1007.8 - 0.0
01/09:30pm 16.4 12.1 0.9 35 6.8 NNE 13 28 7 15 1007.6 - 0.0
01/09:00pm 16.5 12.2 1.0 35 6.8 NNE 13 22 7 12 1007.7 1007.8 0.0
01/08:30pm 16.7 12.2 0.0 32 7.2 NNE 13 30 7 16 1007.5 - 0.0
01/08:00pm 16.7 13.2 1.4 35 6.8 NE 9 17 5 9 1007.4 - 0.0
01/07:30pm 16.4 13.7 3.7 42 5.9 N 7 11 4 6 1007.6 - 0.0
01/07:00pm 17.2 13.9 2.2 36 6.8 NE 9 19 5 10 1007.3 - 0.0
01/06:30pm 17.1 14.3 3.0 39 6.5 NE 7 13 4 7 1007.2 - 0.0
01/06:00pm 17.1 14.0 3.6 40 6.3 NE 9 17 5 9 1007.6 1007.7 0.0
01/05:30pm 17.2 14.2 4.3 42 6.1 NNE 9 15 5 8 1007.9 - 0.0
01/05:00pm 17.2 14.6 4.3 42 6.1 NNE 7 11 4 6 1008.2 - 0.0
01/04:30pm 17.6 14.0 3.2 38 6.7 N 11 17 6 9 1008.5 - 0.0
01/04:00pm 17.7 12.9 2.4 36 7.0 N 17 26 9 14 1008.8 - 0.0
01/03:30pm 18.5 13.7 2.4 34 7.4 N 17 28 9 15 1009.1 - 0.0
01/03:00pm 18.7 13.4 1.8 32 7.7 N 19 28 10 15 1009.5 1009.6 0.0
01/02:30pm 18.5 14.3 1.7 32 7.6 NNW 13 22 7 12 1009.8 - 0.0
01/02:00pm 18.6 14.6 2.6 34 7.4 NNW 13 26 7 14 1010.2 - 0.0
01/01:30pm 18.9 15.5 4.0 37 7.1 N 11 19 6 10 1010.2 - 0.0
01/01:00pm 19.2 14.6 3.9 36 7.3 N 17 26 9 14 1010.5 - 0.0
01/12:30pm 19.7 15.3 2.8 32 7.9 N 15 24 8 13 1011.0 - 0.0
01/12:00pm 19.3 15.0 3.1 34 7.6 N 15 30 8 16 1011.5 1011.6 0.0
01/11:30am 17.9 13.9 3.0 37 6.9 N 13 24 7 13 1012.1 - 0.0
01/11:00am 18.1 15.0 3.6 38 6.8 N 9 17 5 9 1012.4 - 0.0
01/10:30am 17.7 15.0 3.9 40 6.5 NE 7 15 4 8 1013.0 - 0.0
01/10:00am 17.2 14.1 3.7 40 6.3 NNE 9 15 5 8 1013.3 - 0.0
01/09:30am 16.9 14.2 3.5 41 6.2 NE 7 13 4 7 1013.4 - 0.0
01/09:00am 16.6 13.0 3.1 40 6.2 NNE 11 17 6 9 1013.6 1013.6 0.4
01/08:30am 15.5 13.4 6.0 53 4.6 ENE 6 11 3 6 1013.6 - 0.4
01/08:00am 13.8 11.4 6.8 62 3.4 ENE 9 13 5 7 1013.5 - 0.4
01/07:30am 12.6 10.7 7.5 71 2.5 E 7 9 4 5 1013.9 - 0.4
01/07:00am 12.7 10.4 5.7 62 3.3 NE 7 13 4 7 1013.8 - 0.0
01/06:30am 12.1 11.3 6.4 68 2.7 CALM 0 0 0 0 1013.3 - 0.0
01/06:00am 12.5 11.6 5.9 64 3.1 CALM 0 6 0 3 1013.0 1013.0 0.0
01/05:30am 12.9 11.9 5.7 61 3.4 CALM 0 4 0 2 1013.1 - 0.0
01/05:00am 13.4 11.1 2.8 48 4.7 NE 4 9 2 5 1013.0 - 0.0
01/04:30am 13.5 11.2 2.9 48 4.7 NE 4 9 2 5 1013.3 - 0.0
01/04:00am 13.2 10.7 3.7 52 4.3 NNE 6 9 3 5 1013.4 - 0.0
01/03:30am 13.7 10.9 2.9 48 4.8 N 7 11 4 6 1013.7 - 0.0
01/03:00am 12.5 9.7 3.3 53 4.1 ENE 7 13 4 7 1013.8 1013.8 0.0
01/02:30am 9.5 7.9 4.6 71 2.2 ENE 2 7 1 4 1014.4 - 0.0
01/02:00am 10.0 8.8 4.6 69 2.4 CALM 0 0 0 0 1014.9 - 0.0
01/01:30am 10.6 9.4 4.6 66 2.7 CALM 0 4 0 2 1015.0 - 0.0
01/01:00am 11.0 10.0 5.6 69 2.5 CALM 0 0 0 0 1015.0 - 0.0
01/12:30am 11.2 10.1 5.1 66 2.8 CALM 0 0 0 0 1015.4 - 0.0
01/12:00am 11.2 8.8 4.3 62 3.1 NNE 6 7 3 4 1015.7 1015.8 0.0
 
Date/Time
CST
Tmp

°C
App
Tmp
°C
Dew
Point
°C
Rel
Hum
%
Delta-T

°C
Wind Press
QNH
hPa
Press
MSL
hPa
Rain
since
9 am
mm
Dir
 
Spd
km/h
Gust
km/h
Spd
kts
Gust
kts
31/11:30pm 10.7 9.5 4.7 66 2.7 CALM 0 0 0 0 1015.8 - 0.0
31/11:00pm 10.7 9.5 4.7 66 2.7 CALM 0 6 0 3 1016.2 - 0.0
31/10:30pm 11.1 8.8 4.7 64 2.9 NNE 6 7 3 4 1016.7 - 0.0
31/10:00pm 11.3 10.2 4.9 65 2.9 CALM 0 0 0 0 1016.8 - 0.0
31/09:30pm 11.1 10.0 5.2 67 2.7 CALM 0 4 0 2 1016.9 - 0.0
31/09:00pm 11.1 10.1 5.5 68 2.6 CALM 0 6 0 3 1017.2 1017.3 0.0
31/08:30pm 11.4 10.3 5.1 65 2.9 CALM 0 0 0 0 1017.5 - 0.0
31/08:00pm 11.9 10.9 5.4 64 3.0 CALM 0 0 0 0 1017.5 - 0.0
31/07:30pm 12.9 11.9 5.6 61 3.4 CALM 0 0 0 0 1017.3 - 0.0
31/07:00pm 14.0 12.2 5.3 55 4.1 SE 4 9 2 5 1017.1 - 0.0
31/06:30pm 15.1 13.7 3.8 46 5.2 CALM 0 6 0 3 1016.8 - 0.0
31/06:00pm 16.3 14.8 3.2 41 6.0 CALM 0 0 0 0 1016.7 1016.8 0.0
31/05:30pm 17.7 14.7 2.0 35 7.1 N 7 11 4 6 1016.9 - 0.0
31/05:00pm 18.4 15.6 2.2 34 7.4 NNW 6 13 3 7 1017.1 - 0.0
31/04:30pm 18.9 15.9 1.7 31 7.8 W 7 17 4 9 1017.3 - 0.0
31/04:00pm 19.2 15.5 2.5 33 7.7 WSW 11 17 6 9 1017.4 - 0.0
31/03:30pm 19.2 15.7 1.5 30 8.0 SW 9 17 5 9 1017.5 - 0.0
31/03:00pm 19.2 16.0 0.8 29 8.2 NNW 7 13 4 7 1017.8 1017.9 0.0
31/02:30pm 19.6 16.3 2.2 31 8.0 WSW 9 13 5 7 1018.0 - 0.0
31/02:00pm 19.0 15.4 0.4 28 8.2 NW 9 19 5 10 1018.3 - 0.0
31/01:30pm 19.6 16.5 1.5 30 8.2 N 7 13 4 7 1018.6 - 0.0
31/01:00pm 18.6 15.3 2.5 34 7.4 WSW 9 19 5 10 1019.1 - 0.0
31/12:30pm 18.2 15.0 2.8 35 7.1 NW 9 19 5 10 1019.6 - 0.0
31/12:00pm 17.8 14.4 2.1 35 7.1 NW 9 17 5 9 1020.0 1020.1 0.0
31/11:30am 17.8 15.0 3.4 38 6.7 WNW 7 13 4 7 1020.3 - 0.0
31/11:00am 17.0 14.0 2.1 36 6.7 NW 7 15 4 8 1020.8 - 0.0
31/10:30am 16.9 14.0 2.5 38 6.5 NW 7 11 4 6 1021.0 - 0.0
31/10:00am 16.1 12.8 2.2 39 6.2 NNW 9 15 5 8 1021.1 - 0.0
31/09:30am 14.7 11.2 1.0 39 5.9 NNE 9 13 5 7 1021.3 - 0.0
31/09:00am 14.0 10.9 1.2 41 5.5 NE 7 15 4 8 1021.3 1021.4 0.0
31/08:30am 11.8 9.9 2.6 53 4.0 N 2 7 1 4 1021.2 - 0.0
31/08:00am 7.6 6.0 2.6 70 2.1 CALM 0 0 0 0 1021.2 - 0.0
31/07:30am 4.8 3.2 2.3 84 1.0 CALM 0 0 0 0 1021.2 - 0.0
31/07:00am 4.1 2.5 2.3 88 0.7 CALM 0 0 0 0 1021.0 - 0.0
31/06:30am 4.5 2.8 2.0 84 1.0 CALM 0 0 0 0 1020.9 - 0.0
31/06:00am 4.4 2.8 2.4 87 0.8 CALM 0 0 0 0 1020.9 1021.0 0.0
31/05:30am 4.7 3.1 2.2 84 1.0 CALM 0 0 0 0 1021.0 - 0.0
31/05:00am 4.8 3.2 2.3 84 1.0 CALM 0 0 0 0 1020.9 - 0.0
31/04:30am 5.1 3.5 2.4 83 1.1 CALM 0 0 0 0 1020.9 - 0.0
31/04:00am 5.2 3.6 2.5 83 1.1 CALM 0 0 0 0 1020.9 - 0.0
31/03:30am 5.4 3.8 2.7 83 1.1 CALM 0 0 0 0 1021.0 - 0.0
31/03:00am 5.6 4.1 2.9 83 1.1 CALM 0 0 0 0 1021.2 1021.3 0.0
31/02:30am 5.7 4.3 3.3 84 1.0 CALM 0 0 0 0 1021.5 - 0.0
31/02:00am 6.3 4.8 3.2 80 1.3 CALM 0 0 0 0 1021.8 - 0.0
31/01:30am 6.7 4.9 3.4 79 1.4 N 2 6 1 3 1022.0 - 0.0
31/01:00am 6.5 5.1 3.7 82 1.2 CALM 0 0 0 0 1022.4 - 0.0
31/12:30am 6.8 5.4 3.5 79 1.4 CALM 0 6 0 3 1022.5 - 0.0
31/12:00am 7.0 5.6 3.7 79 1.4 CALM 0 0 0 0 1022.3 1022.4 0.0
 
Date/Time
CST
Tmp

°C
App
Tmp
°C
Dew
Point
°C
Rel
Hum
%
Delta-T

°C
Wind Press
QNH
hPa
Press
MSL
hPa
Rain
since
9 am
mm
Dir
 
Spd
km/h
Gust
km/h
Spd
kts
Gust
kts
30/11:30pm 7.3 5.9 3.8 78 1.5 CALM 0 0 0 0 1022.2 - 0.0
30/11:00pm 7.5 6.2 4.3 80 1.4 CALM 0 0 0 0 1022.4 - 0.0
30/10:30pm 7.8 6.6 4.6 80 1.4 CALM 0 0 0 0 1022.9 - 0.0
30/10:00pm 8.3 7.0 4.2 75 1.8 CALM 0 0 0 0 1023.1 - 0.0
30/09:30pm 8.7 7.5 4.6 75 1.8 CALM 0 0 0 0 1023.2 - 0.0
30/09:00pm 9.1 7.9 4.6 73 2.0 CALM 0 0 0 0 1023.3 1023.4 0.0
30/08:30pm 9.3 8.0 4.3 71 2.2 CALM 0 0 0 0 1023.5 - 0.0
30/08:00pm 9.6 8.4 4.7 71 2.2 CALM 0 0 0 0 1023.3 - 0.0
30/07:30pm 10.4 9.2 4.8 68 2.5 CALM 0 0 0 0 1023.2 - 0.0
30/07:00pm 11.3 9.5 3.3 58 3.5 SSE 2 7 1 4 1023.2 - 0.0
30/06:30pm 12.2 10.1 3.9 57 3.7 S 4 7 2 4 1023.2 - 0.0
30/06:00pm 12.8 10.2 3.1 51 4.3 S 6 9 3 5 1023.0 1023.1 0.0

Latest Capital City Observations: Canberra | Sydney | Melbourne | Brisbane | Adelaide | Perth | Hobart | Darwin

Other Formats:

Comma delimited format used in spreadsheet applications
http://www.bom.gov.au/fwo/IDS60901/IDS60901.94675.axf

JavaScript Object Notation format (JSON) in row-major order
http://www.bom.gov.au/fwo/IDS60901/IDS60901.94675.json